sensor_id;sensor_type;location;lat;lon;timestamp;pressure;altitude;pressure_sealevel;temperature
43292;BMP280;28754;47.700;7.924;2023-12-28T00:01:32;91556.06;;;10.23
43292;BMP280;28754;47.700;7.924;2023-12-28T00:04:19;91554.78;;;10.21
43292;BMP280;28754;47.700;7.924;2023-12-28T00:07:06;91549.38;;;10.17
43292;BMP280;28754;47.700;7.924;2023-12-28T00:09:53;91548.09;;;10.15
43292;BMP280;28754;47.700;7.924;2023-12-28T00:12:39;91558.34;;;10.15
43292;BMP280;28754;47.700;7.924;2023-12-28T00:15:26;91549.91;;;10.14
43292;BMP280;28754;47.700;7.924;2023-12-28T00:18:13;91556.81;;;10.14
43292;BMP280;28754;47.700;7.924;2023-12-28T00:20:59;91546.06;;;10.17
43292;BMP280;28754;47.700;7.924;2023-12-28T00:23:46;91551.44;;;10.15
43292;BMP280;28754;47.700;7.924;2023-12-28T00:26:33;91554.25;;;10.19
43292;BMP280;28754;47.700;7.924;2023-12-28T00:29:24;91560.16;;;10.24
43292;BMP280;28754;47.700;7.924;2023-12-28T00:32:10;91561.97;;;10.28
43292;BMP280;28754;47.700;7.924;2023-12-28T00:34:57;91559.91;;;10.30
43292;BMP280;28754;47.700;7.924;2023-12-28T00:37:44;91572.25;;;10.33
43292;BMP280;28754;47.700;7.924;2023-12-28T00:40:31;91561.47;;;10.31
43292;BMP280;28754;47.700;7.924;2023-12-28T00:43:18;91557.13;;;10.27
43292;BMP280;28754;47.700;7.924;2023-12-28T00:46:05;91556.34;;;10.27
43292;BMP280;28754;47.700;7.924;2023-12-28T00:48:51;91557.06;;;10.22
43292;BMP280;28754;47.700;7.924;2023-12-28T00:51:38;91561.69;;;10.20
43292;BMP280;28754;47.700;7.924;2023-12-28T00:54:24;91565.25;;;10.19
43292;BMP280;28754;47.700;7.924;2023-12-28T00:57:11;91557.81;;;10.18
43292;BMP280;28754;47.700;7.924;2023-12-28T00:59:58;91568.31;;;10.16
43292;BMP280;28754;47.700;7.924;2023-12-28T01:02:44;91579.09;;;10.18
43292;BMP280;28754;47.700;7.924;2023-12-28T01:05:33;91596.72;;;10.15
43292;BMP280;28754;47.700;7.924;2023-12-28T01:08:20;91600.03;;;10.15
43292;BMP280;28754;47.700;7.924;2023-12-28T01:11:06;91590.56;;;10.16
43292;BMP280;28754;47.700;7.924;2023-12-28T01:13:53;91594.91;;;10.15
43292;BMP280;28754;47.700;7.924;2023-12-28T01:16:40;91582.41;;;10.14
43292;BMP280;28754;47.700;7.924;2023-12-28T01:19:27;91572.41;;;10.12
43292;BMP280;28754;47.700;7.924;2023-12-28T01:22:13;91586.47;;;10.10
43292;BMP280;28754;47.700;7.924;2023-12-28T01:25:00;91589.03;;;10.10
43292;BMP280;28754;47.700;7.924;2023-12-28T01:27:47;91591.06;;;10.08
43292;BMP280;28754;47.700;7.924;2023-12-28T01:30:33;91603.09;;;10.07
43292;BMP280;28754;47.700;7.924;2023-12-28T01:33:20;91595.88;;;10.04
43292;BMP280;28754;47.700;7.924;2023-12-28T01:36:18;91597.69;;;10.04
43292;BMP280;28754;47.700;7.924;2023-12-28T01:39:05;91609.72;;;10.03
43292;BMP280;28754;47.700;7.924;2023-12-28T01:41:51;91602.53;;;10.00
43292;BMP280;28754;47.700;7.924;2023-12-28T01:44:38;91623.50;;;9.97
43292;BMP280;28754;47.700;7.924;2023-12-28T01:47:26;91615.00;;;9.92
43292;BMP280;28754;47.700;7.924;2023-12-28T01:50:13;91615.72;;;9.88
43292;BMP280;28754;47.700;7.924;2023-12-28T01:53:01;91618.78;;;9.85
43292;BMP280;28754;47.700;7.924;2023-12-28T01:55:48;91621.56;;;9.83
43292;BMP280;28754;47.700;7.924;2023-12-28T01:58:37;91615.94;;;9.81
43292;BMP280;28754;47.700;7.924;2023-12-28T02:01:25;91628.97;;;9.80
43292;BMP280;28754;47.700;7.924;2023-12-28T02:04:13;91616.44;;;9.78
43292;BMP280;28754;47.700;7.924;2023-12-28T02:07:00;91637.13;;;9.77
43292;BMP280;28754;47.700;7.924;2023-12-28T02:09:47;91635.59;;;9.76
43292;BMP280;28754;47.700;7.924;2023-12-28T02:12:34;91635.84;;;9.74
43292;BMP280;28754;47.700;7.924;2023-12-28T02:15:21;91646.06;;;9.74
43292;BMP280;28754;47.700;7.924;2023-12-28T02:18:12;91637.63;;;9.74
43292;BMP280;28754;47.700;7.924;2023-12-28T02:21:04;91632.00;;;9.72
43292;BMP280;28754;47.700;7.924;2023-12-28T02:23:52;91637.34;;;9.70
43292;BMP280;28754;47.700;7.924;2023-12-28T02:26:39;91635.53;;;9.66
43292;BMP280;28754;47.700;7.924;2023-12-28T02:29:27;91637.53;;;9.64
43292;BMP280;28754;47.700;7.924;2023-12-28T02:32:15;91642.41;;;9.60
43292;BMP280;28754;47.700;7.924;2023-12-28T02:35:20;91642.41;;;9.60
43292;BMP280;28754;47.700;7.924;2023-12-28T02:38:14;91641.88;;;9.58
43292;BMP280;28754;47.700;7.924;2023-12-28T02:41:03;91640.84;;;9.59
43292;BMP280;28754;47.700;7.924;2023-12-28T02:43:51;91640.84;;;9.59
43292;BMP280;28754;47.700;7.924;2023-12-28T02:46:39;91638.28;;;9.59
43292;BMP280;28754;47.700;7.924;2023-12-28T02:49:25;91639.53;;;9.57
43292;BMP280;28754;47.700;7.924;2023-12-28T02:52:12;91649.25;;;9.55
43292;BMP280;28754;47.700;7.924;2023-12-28T02:54:58;91634.66;;;9.56
43292;BMP280;28754;47.700;7.924;2023-12-28T02:57:45;91635.41;;;9.51
43292;BMP280;28754;47.700;7.924;2023-12-28T03:00:32;91627.19;;;9.49
43292;BMP280;28754;47.700;7.924;2023-12-28T03:03:18;91636.13;;;9.47
43292;BMP280;28754;47.700;7.924;2023-12-28T03:06:05;91642.50;;;9.44
43292;BMP280;28754;47.700;7.924;2023-12-28T03:08:52;91647.59;;;9.39
43292;BMP280;28754;47.700;7.924;2023-12-28T03:11:39;91656.03;;;9.40
43292;BMP280;28754;47.700;7.924;2023-12-28T03:14:25;91651.41;;;9.37
43292;BMP280;28754;47.700;7.924;2023-12-28T03:17:12;91649.31;;;9.34
43292;BMP280;28754;47.700;7.924;2023-12-28T03:19:59;91643.16;;;9.30
43292;BMP280;28754;47.700;7.924;2023-12-28T03:22:46;91641.09;;;9.27
43292;BMP280;28754;47.700;7.924;2023-12-28T03:25:32;91649.00;;;9.25
43292;BMP280;28754;47.700;7.924;2023-12-28T03:28:19;91653.56;;;9.23
43292;BMP280;28754;47.700;7.924;2023-12-28T03:31:06;91643.59;;;9.22
43292;BMP280;28754;47.700;7.924;2023-12-28T03:33:54;91638.22;;;9.23
43292;BMP280;28754;47.700;7.924;2023-12-28T03:36:41;91645.13;;;9.23
43292;BMP280;28754;47.700;7.924;2023-12-28T03:39:28;91633.13;;;9.23
43292;BMP280;28754;47.700;7.924;2023-12-28T03:42:15;91639.03;;;9.24
43292;BMP280;28754;47.700;7.924;2023-12-28T03:45:02;91628.28;;;9.22
43292;BMP280;28754;47.700;7.924;2023-12-28T03:47:48;91639.75;;;9.20
43292;BMP280;28754;47.700;7.924;2023-12-28T03:50:37;91634.88;;;9.18
43292;BMP280;28754;47.700;7.924;2023-12-28T03:53:24;91632.56;;;9.17
43292;BMP280;28754;47.700;7.924;2023-12-28T03:56:24;91627.22;;;9.18
43292;BMP280;28754;47.700;7.924;2023-12-28T03:59:14;91635.88;;;9.17
43292;BMP280;28754;47.700;7.924;2023-12-28T04:02:03;91620.28;;;9.14
43292;BMP280;28754;47.700;7.924;2023-12-28T04:04:50;91631.78;;;9.16
43292;BMP280;28754;47.700;7.924;2023-12-28T04:07:36;91639.94;;;9.13
43292;BMP280;28754;47.700;7.924;2023-12-28T04:10:31;91632.03;;;9.15
43292;BMP280;28754;47.700;7.924;2023-12-28T04:13:18;91630.50;;;9.14
43292;BMP280;28754;47.700;7.924;2023-12-28T04:16:05;91626.16;;;9.14
43292;BMP280;28754;47.700;7.924;2023-12-28T04:18:52;91637.88;;;9.10
43292;BMP280;28754;47.700;7.924;2023-12-28T04:21:39;91622.00;;;9.08
43292;BMP280;28754;47.700;7.924;2023-12-28T04:24:25;91627.38;;;9.07
43292;BMP280;28754;47.700;7.924;2023-12-28T04:27:12;91615.38;;;9.07
43292;BMP280;28754;47.700;7.924;2023-12-28T04:29:59;91614.59;;;9.07
43292;BMP280;28754;47.700;7.924;2023-12-28T04:32:45;91614.84;;;9.05
43292;BMP280;28754;47.700;7.924;2023-12-28T04:35:32;91603.06;;;9.04
43292;BMP280;28754;47.700;7.924;2023-12-28T04:38:19;91614.84;;;9.05
43292;BMP280;28754;47.700;7.924;2023-12-28T04:41:05;91620.47;;;9.07
43292;BMP280;28754;47.700;7.924;2023-12-28T04:43:52;91605.16;;;9.07
43292;BMP280;28754;47.700;7.924;2023-12-28T04:46:39;91612.56;;;9.09
43292;BMP280;28754;47.700;7.924;2023-12-28T04:49:30;91617.94;;;9.07
43292;BMP280;28754;47.700;7.924;2023-12-28T04:52:17;91623.56;;;9.09
43292;BMP280;28754;47.700;7.924;2023-12-28T04:55:04;91611.84;;;9.13
43292;BMP280;28754;47.700;7.924;2023-12-28T04:57:51;91602.63;;;9.12
43292;BMP280;28754;47.700;7.924;2023-12-28T05:00:38;91608.50;;;9.13
43292;BMP280;28754;47.700;7.924;2023-12-28T05:03:25;91599.09;;;9.13
43292;BMP280;28754;47.700;7.924;2023-12-28T05:06:12;91605.72;;;9.14
43292;BMP280;28754;47.700;7.924;2023-12-28T05:08:59;91608.28;;;9.14
43292;BMP280;28754;47.700;7.924;2023-12-28T05:11:46;91607.25;;;9.15
43292;BMP280;28754;47.700;7.924;2023-12-28T05:14:32;91599.84;;;9.14
43292;BMP280;28754;47.700;7.924;2023-12-28T05:17:19;91603.66;;;9.11
43292;BMP280;28754;47.700;7.924;2023-12-28T05:20:06;91615.63;;;9.11
43292;BMP280;28754;47.700;7.924;2023-12-28T05:22:53;91597.22;;;9.09
43292;BMP280;28754;47.700;7.924;2023-12-28T05:25:40;91611.31;;;9.11
43292;BMP280;28754;47.700;7.924;2023-12-28T05:28:26;91609.31;;;9.13
43292;BMP280;28754;47.700;7.924;2023-12-28T05:31:13;91610.06;;;9.14
43292;BMP280;28754;47.700;7.924;2023-12-28T05:34:00;91610.81;;;9.14
43292;BMP280;28754;47.700;7.924;2023-12-28T05:36:46;91613.38;;;9.14
43292;BMP280;28754;47.700;7.924;2023-12-28T05:39:33;91607.78;;;9.17
43292;BMP280;28754;47.700;7.924;2023-12-28T05:42:20;91621.34;;;9.18
43292;BMP280;28754;47.700;7.924;2023-12-28T05:45:07;91608.81;;;9.16
43292;BMP280;28754;47.700;7.924;2023-12-28T05:47:53;91603.47;;;9.18
43292;BMP280;28754;47.700;7.924;2023-12-28T05:50:40;91598.88;;;9.20
43292;BMP280;28754;47.700;7.924;2023-12-28T05:53:27;91612.94;;;9.22
43292;BMP280;28754;47.700;7.924;2023-12-28T05:56:14;91608.59;;;9.23
43292;BMP280;28754;47.700;7.924;2023-12-28T05:59:01;91613.47;;;9.24
43292;BMP280;28754;47.700;7.924;2023-12-28T06:01:47;91619.38;;;9.29
43292;BMP280;28754;47.700;7.924;2023-12-28T06:04:34;91619.16;;;9.31
43292;BMP280;28754;47.700;7.924;2023-12-28T06:07:21;91614.56;;;9.33
43292;BMP280;28754;47.700;7.924;2023-12-28T06:10:09;91615.34;;;9.33
43292;BMP280;28754;47.700;7.924;2023-12-28T06:12:55;91616.59;;;9.31
43292;BMP280;28754;47.700;7.924;2023-12-28T06:15:42;91615.56;;;9.32
43292;BMP280;28754;47.700;7.924;2023-12-28T06:18:30;91616.09;;;9.34
43292;BMP280;28754;47.700;7.924;2023-12-28T06:21:17;91631.44;;;9.34
43292;BMP280;28754;47.700;7.924;2023-12-28T06:24:04;91635.00;;;9.33
43292;BMP280;28754;47.700;7.924;2023-12-28T06:26:51;91626.31;;;9.34
43292;BMP280;28754;47.700;7.924;2023-12-28T06:29:37;91637.31;;;9.34
43292;BMP280;28754;47.700;7.924;2023-12-28T06:32:24;91633.22;;;9.33
43292;BMP280;28754;47.700;7.924;2023-12-28T06:35:11;91635.78;;;9.33
43292;BMP280;28754;47.700;7.924;2023-12-28T06:37:57;91638.56;;;9.32
43292;BMP280;28754;47.700;7.924;2023-12-28T06:40:44;91651.59;;;9.30
43292;BMP280;28754;47.700;7.924;2023-12-28T06:43:31;91640.31;;;9.26
43292;BMP280;28754;47.700;7.924;2023-12-28T06:46:18;91649.28;;;9.29
43292;BMP280;28754;47.700;7.924;2023-12-28T06:49:05;91644.19;;;9.29
43292;BMP280;28754;47.700;7.924;2023-12-28T06:51:52;91642.91;;;9.31
43292;BMP280;28754;47.700;7.924;2023-12-28T06:54:39;91642.91;;;9.31
43292;BMP280;28754;47.700;7.924;2023-12-28T06:57:25;91640.88;;;9.33
43292;BMP280;28754;47.700;7.924;2023-12-28T07:00:13;91637.31;;;9.34
43292;BMP280;28754;47.700;7.924;2023-12-28T07:02:59;91634.75;;;9.34
43292;BMP280;28754;47.700;7.924;2023-12-28T07:05:46;91642.41;;;9.34
43292;BMP280;28754;47.700;7.924;2023-12-28T07:08:33;91629.41;;;9.36
43292;BMP280;28754;47.700;7.924;2023-12-28T07:11:19;91626.31;;;9.34
43292;BMP280;28754;47.700;7.924;2023-12-28T07:14:06;91631.97;;;9.36
43292;BMP280;28754;47.700;7.924;2023-12-28T07:16:52;91631.00;;;9.42
43292;BMP280;28754;47.700;7.924;2023-12-28T07:19:39;91619.75;;;9.43
43292;BMP280;28754;47.700;7.924;2023-12-28T07:22:26;91615.44;;;9.48
43292;BMP280;28754;47.700;7.924;2023-12-28T07:25:12;91609.84;;;9.51
43292;BMP280;28754;47.700;7.924;2023-12-28T07:27:59;91612.69;;;9.55
43292;BMP280;28754;47.700;7.924;2023-12-28T07:30:46;91610.94;;;9.60
43292;BMP280;28754;47.700;7.924;2023-12-28T07:33:32;91614.59;;;9.69
43292;BMP280;28754;47.700;7.924;2023-12-28T07:36:20;91621.22;;;9.70
43292;BMP280;28754;47.700;7.924;2023-12-28T07:39:06;91636.34;;;9.71
43292;BMP280;28754;47.700;7.924;2023-12-28T07:41:53;91638.59;;;9.68
43292;BMP280;28754;47.700;7.924;2023-12-28T07:44:43;91624.72;;;9.59
43292;BMP280;28754;47.700;7.924;2023-12-28T07:47:29;91629.31;;;9.57
43292;BMP280;28754;47.700;7.924;2023-12-28T07:50:17;91630.34;;;9.56
43292;BMP280;28754;47.700;7.924;2023-12-28T07:53:04;91622.91;;;9.55
43292;BMP280;28754;47.700;7.924;2023-12-28T07:55:50;91628.78;;;9.55
43292;BMP280;28754;47.700;7.924;2023-12-28T07:58:37;91627.25;;;9.54
43292;BMP280;28754;47.700;7.924;2023-12-28T08:01:25;91629.53;;;9.51
43292;BMP280;28754;47.700;7.924;2023-12-28T08:04:12;91621.34;;;9.49
43292;BMP280;28754;47.700;7.924;2023-12-28T08:06:59;91629.00;;;9.49
43292;BMP280;28754;47.700;7.924;2023-12-28T08:09:45;91626.22;;;9.50
43292;BMP280;28754;47.700;7.924;2023-12-28T08:12:32;91631.31;;;9.50
43292;BMP280;28754;47.700;7.924;2023-12-28T08:15:19;91626.22;;;9.50
43292;BMP280;28754;47.700;7.924;2023-12-28T08:18:06;91618.78;;;9.49
43292;BMP280;28754;47.700;7.924;2023-12-28T08:20:53;91628.72;;;9.45
43292;BMP280;28754;47.700;7.924;2023-12-28T08:23:39;91629.97;;;9.43
43292;BMP280;28754;47.700;7.924;2023-12-28T08:26:26;91638.38;;;9.38
43292;BMP280;28754;47.700;7.924;2023-12-28T08:29:13;91642.41;;;9.34
43292;BMP280;28754;47.700;7.924;2023-12-28T08:31:59;91655.47;;;9.33
43292;BMP280;28754;47.700;7.924;2023-12-28T08:34:46;91646.50;;;9.30
43292;BMP280;28754;47.700;7.924;2023-12-28T08:37:34;91666.16;;;9.30
43292;BMP280;28754;47.700;7.924;2023-12-28T08:40:20;91651.31;;;9.27
43292;BMP280;28754;47.700;7.924;2023-12-28T08:43:07;91656.47;;;9.32
43292;BMP280;28754;47.700;7.924;2023-12-28T08:45:54;91665.16;;;9.31
43292;BMP280;28754;47.700;7.924;2023-12-28T08:48:42;91659.00;;;9.32
43292;BMP280;28754;47.700;7.924;2023-12-28T08:51:28;91661.56;;;9.32
43292;BMP280;28754;47.700;7.924;2023-12-28T08:54:15;91657.47;;;9.31
43292;BMP280;28754;47.700;7.924;2023-12-28T08:57:02;91670.03;;;9.32
43292;BMP280;28754;47.700;7.924;2023-12-28T08:59:49;91686.88;;;9.33
43292;BMP280;28754;47.700;7.924;2023-12-28T09:02:35;91670.78;;;9.33
43292;BMP280;28754;47.700;7.924;2023-12-28T09:05:22;91658.53;;;9.35
43292;BMP280;28754;47.700;7.924;2023-12-28T09:08:08;91658.53;;;9.35
43292;BMP280;28754;47.700;7.924;2023-12-28T09:10:55;91648.84;;;9.37
43292;BMP280;28754;47.700;7.924;2023-12-28T09:13:42;91655.25;;;9.39
43292;BMP280;28754;47.700;7.924;2023-12-28T09:16:29;91649.88;;;9.41
43292;BMP280;28754;47.700;7.924;2023-12-28T09:19:15;91650.41;;;9.43
43292;BMP280;28754;47.700;7.924;2023-12-28T09:22:03;91648.66;;;9.43
43292;BMP280;28754;47.700;7.924;2023-12-28T09:24:50;91655.81;;;9.46
43292;BMP280;28754;47.700;7.924;2023-12-28T09:27:37;91656.59;;;9.47
43292;BMP280;28754;47.700;7.924;2023-12-28T09:30:24;91666.56;;;9.48
43292;BMP280;28754;47.700;7.924;2023-12-28T09:33:10;91670.13;;;9.47
43292;BMP280;28754;47.700;7.924;2023-12-28T09:35:58;91673.50;;;9.53
43292;BMP280;28754;47.700;7.924;2023-12-28T09:38:45;91681.72;;;9.55
43292;BMP280;28754;47.700;7.924;2023-12-28T09:41:36;91678.13;;;9.56
43292;BMP280;28754;47.700;7.924;2023-12-28T09:44:27;91672.78;;;9.57
43292;BMP280;28754;47.700;7.924;2023-12-28T09:47:14;91668.94;;;9.55
43292;BMP280;28754;47.700;7.924;2023-12-28T09:50:01;91671.72;;;9.53
43292;BMP280;28754;47.700;7.924;2023-12-28T09:52:48;91665.06;;;9.52
43292;BMP280;28754;47.700;7.924;2023-12-28T09:55:35;91672.75;;;9.52
43292;BMP280;28754;47.700;7.924;2023-12-28T09:58:22;91675.31;;;9.52
43292;BMP280;28754;47.700;7.924;2023-12-28T10:01:10;91668.16;;;9.54
43292;BMP280;28754;47.700;7.924;2023-12-28T10:03:57;91667.13;;;9.55
43292;BMP280;28754;47.700;7.924;2023-12-28T10:06:43;91658.69;;;9.55
43292;BMP280;28754;47.700;7.924;2023-12-28T10:09:30;91654.88;;;9.57
43292;BMP280;28754;47.700;7.924;2023-12-28T10:12:17;91658.19;;;9.57
43292;BMP280;28754;47.700;7.924;2023-12-28T10:15:05;91652.81;;;9.54
43292;BMP280;28754;47.700;7.924;2023-12-28T10:17:52;91650.50;;;9.53
43292;BMP280;28754;47.700;7.924;2023-12-28T10:20:39;91649.44;;;9.49
43292;BMP280;28754;47.700;7.924;2023-12-28T10:23:25;91635.38;;;9.46
43292;BMP280;28754;47.700;7.924;2023-12-28T10:26:12;91636.91;;;9.47
43292;BMP280;28754;47.700;7.924;2023-12-28T10:28:59;91628.97;;;9.44
43292;BMP280;28754;47.700;7.924;2023-12-28T10:31:47;91635.56;;;9.40
43292;BMP280;28754;47.700;7.924;2023-12-28T10:34:37;91630.47;;;9.40
43292;BMP280;28754;47.700;7.924;2023-12-28T10:37:26;91640.69;;;9.40
43292;BMP280;28754;47.700;7.924;2023-12-28T10:40:15;91645.56;;;9.41
43292;BMP280;28754;47.700;7.924;2023-12-28T10:43:11;91643.03;;;9.46
43292;BMP280;28754;47.700;7.924;2023-12-28T10:45:59;91638.75;;;9.52
43292;BMP280;28754;47.700;7.924;2023-12-28T10:48:50;91637.22;;;9.56
43292;BMP280;28754;47.700;7.924;2023-12-28T10:51:42;91638.03;;;9.61
43292;BMP280;28754;47.700;7.924;2023-12-28T10:54:55;91631.75;;;9.73
43292;BMP280;28754;47.700;7.924;2023-12-28T10:57:59;91623.19;;;9.94
43292;BMP280;28754;47.700;7.924;2023-12-28T11:01:00;91621.75;;;10.08
43292;BMP280;28754;47.700;7.924;2023-12-28T11:03:58;91609.53;;;10.20
43292;BMP280;28754;47.700;7.924;2023-12-28T11:06:49;91605.22;;;10.25
43292;BMP280;28754;47.700;7.924;2023-12-28T11:09:37;91618.78;;;10.30
43292;BMP280;28754;47.700;7.924;2023-12-28T11:12:27;91617.03;;;10.31
43292;BMP280;28754;47.700;7.924;2023-12-28T11:15:14;91617.78;;;10.27
43292;BMP280;28754;47.700;7.924;2023-12-28T11:18:01;91625.94;;;10.24
43292;BMP280;28754;47.700;7.924;2023-12-28T11:20:49;91631.03;;;10.19
43292;BMP280;28754;47.700;7.924;2023-12-28T11:23:37;91625.38;;;10.12
43292;BMP280;28754;47.700;7.924;2023-12-28T11:26:25;91634.56;;;10.08
43292;BMP280;28754;47.700;7.924;2023-12-28T11:29:12;91629.19;;;10.09
43292;BMP280;28754;47.700;7.924;2023-12-28T11:31:59;91622.31;;;10.15
43292;BMP280;28754;47.700;7.924;2023-12-28T11:34:57;91613.88;;;10.14
43292;BMP280;28754;47.700;7.924;2023-12-28T11:37:48;91611.28;;;10.09
43292;BMP280;28754;47.700;7.924;2023-12-28T11:40:47;91611.50;;;10.03
43292;BMP280;28754;47.700;7.924;2023-12-28T11:43:35;91610.47;;;9.99
43292;BMP280;28754;47.700;7.924;2023-12-28T11:46:22;91608.59;;;9.90
43292;BMP280;28754;47.700;7.924;2023-12-28T11:49:09;91612.13;;;9.84
43292;BMP280;28754;47.700;7.924;2023-12-28T11:51:59;91607.72;;;9.74
43292;BMP280;28754;47.700;7.924;2023-12-28T11:54:49;91617.41;;;9.72
43292;BMP280;28754;47.700;7.924;2023-12-28T11:57:37;91615.34;;;9.69
43292;BMP280;28754;47.700;7.924;2023-12-28T12:00:25;91606.09;;;9.63
43292;BMP280;28754;47.700;7.924;2023-12-28T12:03:13;91611.22;;;9.63
43292;BMP280;28754;47.700;7.924;2023-12-28T12:05:59;91602.75;;;9.58
43292;BMP280;28754;47.700;7.924;2023-12-28T12:08:46;91592.47;;;9.53
43292;BMP280;28754;47.700;7.924;2023-12-28T12:11:33;91587.31;;;9.43
43292;BMP280;28754;47.700;7.924;2023-12-28T12:14:20;91591.59;;;9.38
43292;BMP280;28754;47.700;7.924;2023-12-28T12:17:06;91596.69;;;9.33
43292;BMP280;28754;47.700;7.924;2023-12-28T12:19:54;91595.84;;;9.23
43292;BMP280;28754;47.700;7.924;2023-12-28T12:22:42;91592.94;;;9.14
43292;BMP280;28754;47.700;7.924;2023-12-28T12:25:29;91600.03;;;9.07
43292;BMP280;28754;47.700;7.924;2023-12-28T12:28:16;91592.84;;;9.04
43292;BMP280;28754;47.700;7.924;2023-12-28T12:31:03;91615.06;;;9.04
43292;BMP280;28754;47.700;7.924;2023-12-28T12:33:51;91602.25;;;8.99
43292;BMP280;28754;47.700;7.924;2023-12-28T12:36:39;91598.41;;;8.96
43292;BMP280;28754;47.700;7.924;2023-12-28T12:39:26;91595.78;;;8.91
43292;BMP280;28754;47.700;7.924;2023-12-28T12:42:14;91604.97;;;8.88
43292;BMP280;28754;47.700;7.924;2023-12-28T12:45:01;91586.56;;;8.86
43292;BMP280;28754;47.700;7.924;2023-12-28T12:47:48;91583.75;;;8.87
43292;BMP280;28754;47.700;7.924;2023-12-28T12:50:35;91575.84;;;8.89
43292;BMP280;28754;47.700;7.924;2023-12-28T12:53:22;91582.50;;;8.89
43292;BMP280;28754;47.700;7.924;2023-12-28T12:56:09;91572.28;;;8.89
43292;BMP280;28754;47.700;7.924;2023-12-28T12:58:57;91571.28;;;8.90
43292;BMP280;28754;47.700;7.924;2023-12-28T13:01:45;91574.81;;;8.85
43292;BMP280;28754;47.700;7.924;2023-12-28T13:04:34;91569.69;;;8.85
43292;BMP280;28754;47.700;7.924;2023-12-28T13:07:21;91571.72;;;8.83
43292;BMP280;28754;47.700;7.924;2023-12-28T13:10:08;91567.09;;;8.80
43292;BMP280;28754;47.700;7.924;2023-12-28T13:12:55;91568.63;;;8.81
43292;BMP280;28754;47.700;7.924;2023-12-28T13:15:41;91563.00;;;8.79
43292;BMP280;28754;47.700;7.924;2023-12-28T13:18:28;91563.78;;;8.79
43292;BMP280;28754;47.700;7.924;2023-12-28T13:21:15;91565.09;;;8.82
43292;BMP280;28754;47.700;7.924;2023-12-28T13:24:02;91570.72;;;8.84
43292;BMP280;28754;47.700;7.924;2023-12-28T13:26:49;91566.06;;;8.81
43292;BMP280;28754;47.700;7.924;2023-12-28T13:29:36;91570.66;;;8.79
43292;BMP280;28754;47.700;7.924;2023-12-28T13:32:23;91571.91;;;8.76
43292;BMP280;28754;47.700;7.924;2023-12-28T13:35:10;91580.59;;;8.75
43292;BMP280;28754;47.700;7.924;2023-12-28T13:37:56;91579.56;;;8.76
43292;BMP280;28754;47.700;7.924;2023-12-28T13:40:43;91579.84;;;8.75
43292;BMP280;28754;47.700;7.924;2023-12-28T13:43:30;91568.59;;;8.76
43292;BMP280;28754;47.700;7.924;2023-12-28T13:46:16;91566.03;;;8.76
43292;BMP280;28754;47.700;7.924;2023-12-28T13:49:03;91559.41;;;8.75
43292;BMP280;28754;47.700;7.924;2023-12-28T13:51:50;91565.28;;;8.75
43292;BMP280;28754;47.700;7.924;2023-12-28T13:54:38;91574.19;;;8.73
43292;BMP280;28754;47.700;7.924;2023-12-28T13:57:24;91568.28;;;8.72
43292;BMP280;28754;47.700;7.924;2023-12-28T14:00:12;91575.69;;;8.69
43292;BMP280;28754;47.700;7.924;2023-12-28T14:03:01;91589.44;;;8.68
43292;BMP280;28754;47.700;7.924;2023-12-28T14:05:48;91591.94;;;8.63
43292;BMP280;28754;47.700;7.924;2023-12-28T14:08:38;91586.28;;;8.56
43292;BMP280;28754;47.700;7.924;2023-12-28T14:11:25;91600.47;;;8.47
43292;BMP280;28754;47.700;7.924;2023-12-28T14:14:11;91592.75;;;8.42
43292;BMP280;28754;47.700;7.924;2023-12-28T14:16:58;91597.25;;;8.35
43292;BMP280;28754;47.700;7.924;2023-12-28T14:19:46;91606.16;;;8.33
43292;BMP280;28754;47.700;7.924;2023-12-28T14:22:33;91601.78;;;8.28
43292;BMP280;28754;47.700;7.924;2023-12-28T14:25:20;91620.88;;;8.26
43292;BMP280;28754;47.700;7.924;2023-12-28T14:28:08;91610.84;;;8.20
43292;BMP280;28754;47.700;7.924;2023-12-28T14:30:55;91615.97;;;8.20
43292;BMP280;28754;47.700;7.924;2023-12-28T14:33:42;91615.19;;;8.19
43292;BMP280;28754;47.700;7.924;2023-12-28T14:36:37;91604.69;;;8.16
43292;BMP280;28754;47.700;7.924;2023-12-28T14:39:26;91611.81;;;8.14
43292;BMP280;28754;47.700;7.924;2023-12-28T14:42:13;91607.41;;;8.09
43292;BMP280;28754;47.700;7.924;2023-12-28T14:45:00;91604.38;;;8.12
43292;BMP280;28754;47.700;7.924;2023-12-28T14:47:47;91607.47;;;8.14
43292;BMP280;28754;47.700;7.924;2023-12-28T14:50:34;91602.38;;;8.14
43292;BMP280;28754;47.700;7.924;2023-12-28T14:53:22;91596.00;;;8.17
43292;BMP280;28754;47.700;7.924;2023-12-28T14:56:11;91602.19;;;8.21
43292;BMP280;28754;47.700;7.924;2023-12-28T14:58:58;91595.56;;;8.20
43292;BMP280;28754;47.700;7.924;2023-12-28T15:01:44;91591.97;;;8.21
43292;BMP280;28754;47.700;7.924;2023-12-28T15:04:32;91593.53;;;8.22
43292;BMP280;28754;47.700;7.924;2023-12-28T15:07:19;91599.94;;;8.24
43292;BMP280;28754;47.700;7.924;2023-12-28T15:10:06;91592.28;;;8.24
43292;BMP280;28754;47.700;7.924;2023-12-28T15:12:55;91593.06;;;8.24
43292;BMP280;28754;47.700;7.924;2023-12-28T15:15:42;91589.75;;;8.24
43292;BMP280;28754;47.700;7.924;2023-12-28T15:18:30;91589.50;;;8.25
43292;BMP280;28754;47.700;7.924;2023-12-28T15:21:17;91584.91;;;8.27
43292;BMP280;28754;47.700;7.924;2023-12-28T15:24:04;91596.19;;;8.31
43292;BMP280;28754;47.700;7.924;2023-12-28T15:26:51;91588.00;;;8.29
43292;BMP280;28754;47.700;7.924;2023-12-28T15:29:38;91586.53;;;8.33
43292;BMP280;28754;47.700;7.924;2023-12-28T15:32:25;91577.38;;;8.37
43292;BMP280;28754;47.700;7.924;2023-12-28T15:35:13;91564.84;;;8.36
43292;BMP280;28754;47.700;7.924;2023-12-28T15:38:01;91566.69;;;8.40
43292;BMP280;28754;47.700;7.924;2023-12-28T15:40:47;91571.34;;;8.43
43292;BMP280;28754;47.700;7.924;2023-12-28T15:43:34;91572.63;;;8.46
43292;BMP280;28754;47.700;7.924;2023-12-28T15:46:21;91561.94;;;8.49
43292;BMP280;28754;47.700;7.924;2023-12-28T15:49:08;91561.16;;;8.48
43292;BMP280;28754;47.700;7.924;2023-12-28T15:51:54;91556.59;;;8.50
43292;BMP280;28754;47.700;7.924;2023-12-28T15:54:41;91565.81;;;8.51
43292;BMP280;28754;47.700;7.924;2023-12-28T15:57:28;91565.81;;;8.51
43292;BMP280;28754;47.700;7.924;2023-12-28T16:00:15;91558.38;;;8.50
43292;BMP280;28754;47.700;7.924;2023-12-28T16:03:02;91573.97;;;8.53
43292;BMP280;28754;47.700;7.924;2023-12-28T16:05:48;91577.00;;;8.50
43292;BMP280;28754;47.700;7.924;2023-12-28T16:08:35;91579.06;;;8.53
43292;BMP280;28754;47.700;7.924;2023-12-28T16:11:22;91570.19;;;8.56
43292;BMP280;28754;47.700;7.924;2023-12-28T16:14:08;91582.69;;;8.57
43292;BMP280;28754;47.700;7.924;2023-12-28T16:16:55;91572.47;;;8.57